Radium Springs, Georgia
Current Conditions -  °F | °C
As of 9:53 PM on Monday 22 Dec 2014 (Local Time) from KABY Reporting Station
Haze Haze  
Wind Chill: 54°   Ceiling: 200
Heat Index: 54°   Visibility: 0.75mi
Dew Point: 53°   Wind: 5mph
Humidity: 97%   Direction: 50°NE
Pressure: 29.91"   Gusts: NA
Location:  31.464°N, 83.985°W
Report Text: KABY 230253Z 05004KT 3/4SM BR OVC002 12/12 A2991 RMK AO2 SLP129 T01220117 51002
Loading
Personal Weather Stations






























Interactive Weather Map New forecast layout! Learn more

10-Day Weather Forecast

Advertisements
Track Severe Weather on mobile